createdAt,value
2024-03-24T00:02:04.639Z,85.85
2024-03-24T00:04:09.074Z,86.29
2024-03-24T00:06:13.469Z,85.99
2024-03-24T00:08:17.830Z,85.77
2024-03-24T00:10:26.228Z,85.76
2024-03-24T00:12:30.906Z,85.43
2024-03-24T00:14:35.237Z,86.03
2024-03-24T00:16:42.226Z,85.96
2024-03-24T00:18:49.615Z,86.06
2024-03-24T00:20:56.985Z,86.04
2024-03-24T00:23:01.380Z,85.92
2024-03-24T00:25:06.737Z,85.73
2024-03-24T00:27:11.146Z,85.72
2024-03-24T00:29:15.472Z,85.87
2024-03-24T00:31:19.835Z,85.51
2024-03-24T00:33:24.249Z,84.63
2024-03-24T00:35:28.548Z,84.29
2024-03-24T00:37:32.883Z,84.10
2024-03-24T00:39:37.152Z,83.69
2024-03-24T00:41:41.504Z,83.92
2024-03-24T00:43:45.849Z,83.52
2024-03-24T00:45:50.177Z,83.48
2024-03-24T00:47:54.520Z,83.09
2024-03-24T00:49:58.828Z,82.92
2024-03-24T00:52:03.229Z,82.37
2024-03-24T00:54:07.598Z,81.93
2024-03-24T00:56:11.994Z,81.90
2024-03-24T00:58:16.687Z,81.37
2024-03-24T01:00:21.528Z,81.55
2024-03-24T01:02:25.990Z,80.97
2024-03-24T01:04:30.350Z,80.86
2024-03-24T01:06:37.414Z,80.95
2024-03-24T01:08:41.795Z,81.00
2024-03-24T01:10:46.077Z,80.91
2024-03-24T01:12:50.358Z,81.10
2024-03-24T01:14:54.804Z,81.08
2024-03-24T01:16:59.206Z,81.30
2024-03-24T01:19:03.585Z,81.46
2024-03-24T01:21:08.802Z,81.78
2024-03-24T01:23:13.056Z,82.19
2024-03-24T01:25:17.635Z,82.34
2024-03-24T01:27:22.122Z,82.76
2024-03-24T01:29:26.551Z,82.65
2024-03-24T01:31:30.845Z,83.08
2024-03-24T01:33:35.341Z,83.52
2024-03-24T01:35:47.440Z,83.62
2024-03-24T01:37:51.755Z,84.03
2024-03-24T01:39:56.048Z,84.30
2024-03-24T01:42:01.490Z,84.31
2024-03-24T01:44:06.070Z,84.76
2024-03-24T01:46:11.770Z,85.51
2024-03-24T01:48:16.566Z,85.32
2024-03-24T01:50:21.056Z,85.35
2024-03-24T01:52:26.592Z,84.95
2024-03-24T01:54:31.158Z,85.28
2024-03-24T01:56:38.665Z,85.27
2024-03-24T01:58:43.084Z,85.16
2024-03-24T02:00:47.444Z,84.90
2024-03-24T02:02:51.806Z,84.69
2024-03-24T02:04:56.116Z,84.92
2024-03-24T02:07:00.461Z,84.57
2024-03-24T02:09:04.930Z,84.41
2024-03-24T02:11:09.683Z,84.38
2024-03-24T02:13:14.032Z,84.09
2024-03-24T02:15:20.510Z,84.26
2024-03-24T02:17:24.835Z,84.36
2024-03-24T02:19:29.331Z,84.18
2024-03-24T02:21:34.704Z,84.54
2024-03-24T02:23:40.000Z,84.94
2024-03-24T02:25:44.411Z,84.83
2024-03-24T02:27:48.647Z,85.17
2024-03-24T02:29:52.983Z,85.36
2024-03-24T02:31:57.546Z,85.87
2024-03-24T02:34:01.952Z,86.22
2024-03-24T02:36:07.405Z,86.77
2024-03-24T02:38:11.847Z,86.96
2024-03-24T02:40:16.451Z,87.25
2024-03-24T02:42:20.756Z,87.40
2024-03-24T02:44:25.893Z,87.65
2024-03-24T02:46:30.183Z,87.45
2024-03-24T02:48:34.479Z,87.89
2024-03-24T02:50:38.936Z,88.20
2024-03-24T02:52:44.408Z,88.40
2024-03-24T02:54:48.725Z,88.42
2024-03-24T02:56:52.991Z,89.38
2024-03-24T02:58:58.842Z,89.58
2024-03-24T03:01:06.012Z,89.68
2024-03-24T03:03:10.621Z,89.83
2024-03-24T03:05:15.137Z,89.39
2024-03-24T03:07:19.500Z,90.20
2024-03-24T03:09:23.893Z,90.21
2024-03-24T03:11:28.174Z,90.04
2024-03-24T03:13:32.507Z,90.03
2024-03-24T03:15:36.786Z,89.73
2024-03-24T03:17:41.028Z,89.88
2024-03-24T03:19:45.442Z,89.14
2024-03-24T03:21:49.866Z,89.33
2024-03-24T03:23:54.590Z,89.67
2024-03-24T03:25:58.911Z,89.30
2024-03-24T03:28:03.683Z,89.82
2024-03-24T03:30:10.692Z,90.09
2024-03-24T03:32:15.041Z,89.58
2024-03-24T03:34:22.635Z,89.25
2024-03-24T03:36:27.213Z,88.93
2024-03-24T03:38:31.674Z,89.13
2024-03-24T03:40:38.586Z,88.77
2024-03-24T03:42:45.845Z,88.86
2024-03-24T03:44:50.365Z,88.95
2024-03-24T03:46:54.756Z,88.51
2024-03-24T03:48:59.088Z,88.60
2024-03-24T03:51:05.358Z,89.06
2024-03-24T03:53:09.878Z,88.63
2024-03-24T03:55:14.308Z,88.17
2024-03-24T03:57:18.619Z,87.87
2024-03-24T03:59:22.959Z,87.81
2024-03-24T04:01:28.606Z,87.60
2024-03-24T04:03:33.210Z,87.47
2024-03-24T04:05:39.361Z,87.41
2024-03-24T04:07:43.707Z,87.00
2024-03-24T04:09:48.247Z,87.04
2024-03-24T04:11:52.683Z,86.99
2024-03-24T04:13:57.061Z,87.17
2024-03-24T04:16:01.931Z,87.12
2024-03-24T04:18:06.675Z,86.85
2024-03-24T04:20:13.406Z,86.91
2024-03-24T04:22:17.831Z,86.80
2024-03-24T04:24:23.431Z,86.53
2024-03-24T04:26:27.976Z,86.13
2024-03-24T04:28:32.582Z,85.86
2024-03-24T04:30:36.926Z,85.93
2024-03-24T04:32:41.209Z,85.70
2024-03-24T04:34:45.563Z,85.56
2024-03-24T04:36:50.181Z,84.87
2024-03-24T04:38:54.480Z,85.13
2024-03-24T04:40:58.744Z,84.48
2024-03-24T04:43:04.400Z,84.35
2024-03-24T04:45:10.147Z,83.84
2024-03-24T04:47:14.493Z,83.44
2024-03-24T04:49:19.302Z,83.11
2024-03-24T04:51:26.590Z,82.58
2024-03-24T04:53:32.520Z,82.67
2024-03-24T04:55:40.699Z,82.50
2024-03-24T04:57:45.017Z,82.06
2024-03-24T04:59:49.364Z,81.81
2024-03-24T05:01:54.740Z,81.44
2024-03-24T05:04:01.888Z,81.48
2024-03-24T05:06:06.609Z,81.17
2024-03-24T05:08:11.053Z,81.30
2024-03-24T05:10:15.437Z,80.54
2024-03-24T05:12:19.724Z,79.91
2024-03-24T05:14:24.118Z,80.01
2024-03-24T05:16:28.397Z,79.78
2024-03-24T05:18:32.708Z,79.53
2024-03-24T05:20:38.943Z,79.41
2024-03-24T05:22:43.326Z,79.23
2024-03-24T05:24:49.404Z,79.07
2024-03-24T05:26:56.480Z,79.30
2024-03-24T05:29:00.782Z,78.88
2024-03-24T05:31:07.668Z,78.67
2024-03-24T05:33:12.172Z,78.72
2024-03-24T05:35:17.262Z,78.75
2024-03-24T05:37:21.547Z,78.91
2024-03-24T05:39:26.010Z,78.50
2024-03-24T05:41:30.750Z,78.59
2024-03-24T05:43:34.964Z,78.57
2024-03-24T05:45:39.293Z,78.09
2024-03-24T05:47:43.805Z,78.11
2024-03-24T05:49:49.735Z,78.08
2024-03-24T05:51:54.063Z,77.57
2024-03-24T05:53:58.471Z,77.35
2024-03-24T05:56:03.380Z,76.92
2024-03-24T05:58:07.767Z,76.92
2024-03-24T06:00:14.185Z,76.52
2024-03-24T06:02:19.444Z,76.32
2024-03-24T06:04:26.487Z,75.50
2024-03-24T06:06:30.854Z,75.42
2024-03-24T06:08:35.167Z,75.07
2024-03-24T06:10:41.736Z,74.07
2024-03-24T06:12:45.997Z,74.35
2024-03-24T06:14:50.328Z,74.51
2024-03-24T06:16:54.775Z,74.28
2024-03-24T06:18:59.070Z,74.72
2024-03-24T06:21:06.572Z,74.72
2024-03-24T06:23:12.366Z,73.80
2024-03-24T06:25:17.233Z,73.89
2024-03-24T06:27:22.865Z,73.63
2024-03-24T06:29:27.348Z,73.63
2024-03-24T06:31:34.400Z,73.13
2024-03-24T06:33:38.711Z,72.95
2024-03-24T06:35:43.008Z,72.31
2024-03-24T06:37:47.600Z,71.89
2024-03-24T06:39:54.918Z,71.91
2024-03-24T06:42:02.490Z,71.36
2024-03-24T06:44:07.079Z,71.31
2024-03-24T06:46:12.340Z,71.48
2024-03-24T06:48:19.538Z,71.59
2024-03-24T06:50:27.020Z,71.46
2024-03-24T06:52:35.173Z,71.30
2024-03-24T06:54:40.206Z,70.81
2024-03-24T06:56:44.521Z,70.54
2024-03-24T06:58:48.925Z,69.78
2024-03-24T07:00:54.994Z,69.94
2024-03-24T07:02:59.459Z,69.66
2024-03-24T07:05:04.369Z,69.76
2024-03-24T07:07:08.712Z,69.53
2024-03-24T07:09:13.074Z,68.92
2024-03-24T07:11:17.358Z,68.90
2024-03-24T07:13:22.188Z,69.12
2024-03-24T07:15:26.736Z,68.50
2024-03-24T07:17:31.056Z,68.04
2024-03-24T07:19:35.411Z,68.37
2024-03-24T07:21:39.729Z,67.81
2024-03-24T07:23:43.992Z,66.45
2024-03-24T07:25:48.288Z,64.95
2024-03-24T07:27:55.543Z,64.97
2024-03-24T07:29:59.984Z,64.49
2024-03-24T07:32:04.657Z,63.55
2024-03-24T07:34:08.879Z,62.44
2024-03-24T07:36:13.155Z,61.92
2024-03-24T07:38:17.505Z,61.55
2024-03-24T07:40:21.806Z,61.47
2024-03-24T07:42:26.159Z,61.79
2024-03-24T07:44:31.379Z,61.97
2024-03-24T07:46:35.727Z,61.21
2024-03-24T07:48:41.846Z,61.30
2024-03-24T07:50:47.719Z,61.71
2024-03-24T07:52:53.967Z,62.29
2024-03-24T07:54:59.568Z,62.44
2024-03-24T07:57:04.135Z,62.38
2024-03-24T07:59:08.453Z,61.90
2024-03-24T08:01:12.903Z,61.61
2024-03-24T08:03:17.302Z,61.84
2024-03-24T08:05:21.563Z,61.46
2024-03-24T08:07:25.875Z,61.65
2024-03-24T08:09:30.263Z,62.05
2024-03-24T08:11:34.546Z,62.55
2024-03-24T08:13:38.853Z,63.21
2024-03-24T08:15:43.277Z,64.26
2024-03-24T08:17:47.668Z,64.95
2024-03-24T08:19:52.003Z,65.93
2024-03-24T08:21:56.369Z,67.64
2024-03-24T08:24:00.724Z,68.95
2024-03-24T08:26:05.236Z,69.46
2024-03-24T08:28:09.706Z,69.87
2024-03-24T08:30:14.636Z,69.05
2024-03-24T08:32:18.915Z,69.32
2024-03-24T08:34:23.250Z,69.02
2024-03-24T08:36:27.784Z,69.67
2024-03-24T08:38:32.066Z,69.91
2024-03-24T08:40:36.459Z,69.35
2024-03-24T08:42:40.807Z,69.68
2024-03-24T08:44:45.317Z,69.67
2024-03-24T08:46:49.774Z,69.68
2024-03-24T08:48:54.362Z,69.92
2024-03-24T08:50:58.705Z,69.62
2024-03-24T08:53:03.052Z,69.70
2024-03-24T08:55:08.360Z,69.53
2024-03-24T08:57:12.635Z,69.21
2024-03-24T08:59:16.977Z,69.06
2024-03-24T09:01:21.348Z,69.04
2024-03-24T09:03:25.714Z,69.55
2024-03-24T09:05:32.783Z,71.46
2024-03-24T09:07:38.105Z,71.28
2024-03-24T09:09:42.514Z,71.78
2024-03-24T09:11:46.947Z,71.50
2024-03-24T09:13:51.332Z,71.51
2024-03-24T09:15:55.673Z,71.23
2024-03-24T09:18:00.051Z,71.64
2024-03-24T09:20:04.896Z,71.58
2024-03-24T09:22:12.256Z,70.31
2024-03-24T09:24:16.552Z,70.33
2024-03-24T09:26:21.107Z,70.26
2024-03-24T09:28:25.792Z,69.49
2024-03-24T09:30:30.212Z,68.71
2024-03-24T09:32:34.515Z,66.89
2024-03-24T09:34:38.878Z,66.27
2024-03-24T09:36:43.197Z,66.18
2024-03-24T09:38:47.639Z,65.39
2024-03-24T09:40:52.566Z,64.26
2024-03-24T09:42:57.786Z,63.50
2024-03-24T09:45:04.194Z,63.66
2024-03-24T09:47:08.657Z,62.50
2024-03-24T09:49:15.360Z,62.08
2024-03-24T09:51:20.591Z,60.45
2024-03-24T09:53:25.016Z,59.88
2024-03-24T09:55:29.550Z,58.86
2024-03-24T09:57:38.129Z,58.95
2024-03-24T09:59:46.707Z,57.91
2024-03-24T10:01:51.347Z,58.81
2024-03-24T10:03:55.820Z,58.45
2024-03-24T10:06:03.766Z,59.27
2024-03-24T10:08:09.153Z,58.73
2024-03-24T10:10:14.815Z,58.75
2024-03-24T10:12:19.300Z,58.45
2024-03-24T10:14:27.029Z,58.73
2024-03-24T10:16:31.655Z,58.94
2024-03-24T10:18:35.967Z,57.25
2024-03-24T10:20:40.934Z,57.17
2024-03-24T10:22:56.183Z,57.82
2024-03-24T10:25:00.961Z,56.61
2024-03-24T10:27:05.707Z,57.32
2024-03-24T10:29:10.022Z,57.85
2024-03-24T10:31:14.296Z,58.07
2024-03-24T10:33:18.922Z,58.74
2024-03-24T10:35:23.297Z,58.12
2024-03-24T10:37:28.741Z,57.55
2024-03-24T10:39:36.273Z,57.67
2024-03-24T10:41:43.247Z,58.37
2024-03-24T10:43:49.267Z,58.71
2024-03-24T10:45:54.101Z,58.00
2024-03-24T10:48:04.145Z,57.29
2024-03-24T10:50:13.675Z,56.45
2024-03-24T10:52:20.231Z,56.49
2024-03-24T10:54:24.838Z,55.12
2024-03-24T10:56:29.419Z,54.74
2024-03-24T10:58:35.809Z,53.14
2024-03-24T11:00:40.228Z,52.67
2024-03-24T11:02:45.765Z,52.82
2024-03-24T11:04:51.439Z,52.94
2024-03-24T11:06:56.157Z,53.50
2024-03-24T11:09:00.625Z,53.43
2024-03-24T11:11:05.418Z,53.43
2024-03-24T11:13:12.261Z,52.57
2024-03-24T11:15:18.409Z,53.15
2024-03-24T11:17:24.099Z,52.17
2024-03-24T11:19:32.375Z,51.52
2024-03-24T11:21:38.065Z,51.72
2024-03-24T11:23:43.255Z,51.73
2024-03-24T11:25:51.262Z,50.96
2024-03-24T11:27:55.596Z,50.87
2024-03-24T11:30:00.020Z,52.13
2024-03-24T11:32:04.851Z,51.78
2024-03-24T11:34:10.479Z,52.09
2024-03-24T11:36:19.422Z,51.58
2024-03-24T11:38:23.866Z,51.44
2024-03-24T11:40:29.019Z,51.76
2024-03-24T11:42:34.492Z,51.61
2024-03-24T11:44:39.094Z,52.37
2024-03-24T11:46:43.473Z,52.22
2024-03-24T11:48:49.045Z,52.07
2024-03-24T11:50:54.477Z,51.35
2024-03-24T11:52:58.903Z,50.70
2024-03-24T11:55:05.255Z,50.39
2024-03-24T11:57:09.686Z,51.42
2024-03-24T11:59:14.421Z,51.81
2024-03-24T12:01:19.520Z,50.96
2024-03-24T12:03:23.971Z,50.20
2024-03-24T12:05:30.234Z,48.53
2024-03-24T12:07:35.636Z,48.05
2024-03-24T12:09:40.062Z,47.82
2024-03-24T12:11:44.404Z,48.88
2024-03-24T12:13:48.838Z,49.47
2024-03-24T12:15:53.639Z,50.39
2024-03-24T12:18:08.096Z,50.16
2024-03-24T12:20:15.785Z,49.83
2024-03-24T12:22:20.193Z,48.66
2024-03-24T12:24:24.698Z,48.89
2024-03-24T12:26:29.152Z,48.65
2024-03-24T12:28:33.539Z,48.13
2024-03-24T12:30:38.302Z,47.73
2024-03-24T12:32:42.773Z,48.13
2024-03-24T12:34:49.036Z,48.83
2024-03-24T12:36:54.139Z,49.43
2024-03-24T12:39:01.158Z,49.57
2024-03-24T12:41:05.876Z,49.46
2024-03-24T12:43:16.361Z,49.80
2024-03-24T12:45:20.679Z,52.98
2024-03-24T12:47:25.278Z,56.26
2024-03-24T12:49:51.914Z,57.59
2024-03-24T12:51:57.950Z,57.59
2024-03-24T12:54:06.949Z,59.73
2024-03-24T12:56:13.692Z,61.60
2024-03-24T12:58:18.359Z,62.69
2024-03-24T13:00:22.843Z,62.92
2024-03-24T13:02:28.077Z,64.24
2024-03-24T13:04:32.549Z,65.25
2024-03-24T13:06:38.142Z,65.19
2024-03-24T13:08:45.033Z,64.84
2024-03-24T13:10:49.394Z,64.13
2024-03-24T13:12:53.725Z,61.75
2024-03-24T13:14:58.144Z,60.25
2024-03-24T13:17:11.235Z,59.46
2024-03-24T13:19:21.383Z,59.59
2024-03-24T13:21:29.871Z,59.14
2024-03-24T13:23:34.451Z,58.46
2024-03-24T13:25:39.660Z,58.45
2024-03-24T13:27:48.581Z,57.76
2024-03-24T13:29:52.984Z,57.90
2024-03-24T13:31:57.324Z,57.78
2024-03-24T13:34:01.673Z,58.00
2024-03-24T13:36:14.430Z,58.02
2024-03-24T13:38:30.211Z,56.22
2024-03-24T13:40:44.207Z,56.74
2024-03-24T13:43:03.203Z,55.79
2024-03-24T13:45:13.706Z,55.82
2024-03-24T13:47:29.612Z,54.41
2024-03-24T13:49:33.947Z,53.92
2024-03-24T13:51:39.345Z,53.77
2024-03-24T13:53:45.382Z,53.15
2024-03-24T13:55:49.663Z,52.82
2024-03-24T13:57:54.010Z,52.67
2024-03-24T13:59:58.363Z,53.11
2024-03-24T14:02:02.663Z,53.42
2024-03-24T14:04:07.749Z,53.12
2024-03-24T14:06:12.096Z,53.61
2024-03-24T14:08:16.430Z,55.21
2024-03-24T14:10:21.316Z,56.66
2024-03-24T14:12:37.349Z,57.75
2024-03-24T14:14:56.883Z,58.71
2024-03-24T14:17:08.866Z,58.73
2024-03-24T14:19:20.284Z,59.17
2024-03-24T14:21:32.971Z,59.42
2024-03-24T14:23:50.540Z,58.57
2024-03-24T14:26:00.751Z,56.74
2024-03-24T14:28:05.508Z,55.11
2024-03-24T14:30:10.842Z,54.55
2024-03-24T14:32:15.135Z,54.31
2024-03-24T14:34:19.459Z,54.21
2024-03-24T14:36:33.079Z,54.65
2024-03-24T14:38:58.461Z,54.44
2024-03-24T14:41:15.473Z,53.65
2024-03-24T14:43:34.697Z,53.32
2024-03-24T14:46:03.501Z,53.87
2024-03-24T14:48:13.027Z,53.54
2024-03-24T14:50:17.873Z,53.01
2024-03-24T14:52:22.225Z,53.11
2024-03-24T14:54:26.572Z,52.76
2024-03-24T14:56:30.820Z,52.31
2024-03-24T14:58:35.261Z,50.97
2024-03-24T15:00:39.560Z,51.60
2024-03-24T15:02:44.110Z,51.50
2024-03-24T15:04:49.243Z,51.42
2024-03-24T15:06:53.457Z,51.16
2024-03-24T15:08:57.794Z,51.24
2024-03-24T15:11:02.078Z,51.78
2024-03-24T15:13:09.528Z,51.84
2024-03-24T15:15:14.932Z,52.45
2024-03-24T15:17:19.326Z,53.04
2024-03-24T15:19:23.780Z,53.57
2024-03-24T15:21:28.163Z,53.92
2024-03-24T15:23:32.511Z,54.35
2024-03-24T15:25:36.767Z,54.70
2024-03-24T15:27:41.138Z,55.04
2024-03-24T15:29:45.440Z,55.44
2024-03-24T15:31:49.831Z,55.85
2024-03-24T15:33:54.141Z,56.13
2024-03-24T15:35:58.658Z,56.21
2024-03-24T15:38:03.010Z,56.98
2024-03-24T15:40:09.264Z,57.28
2024-03-24T15:42:13.664Z,57.24
2024-03-24T15:44:17.973Z,57.44
2024-03-24T15:46:22.700Z,57.55
2024-03-24T15:48:27.202Z,58.05
2024-03-24T15:50:31.488Z,58.24
2024-03-24T15:52:35.821Z,57.78
2024-03-24T15:54:40.169Z,57.82
2024-03-24T15:56:55.339Z,57.39
2024-03-24T15:59:21.168Z,57.68
2024-03-24T16:01:37.171Z,57.50
2024-03-24T16:03:41.631Z,57.55
2024-03-24T16:05:45.939Z,57.60
2024-03-24T16:07:54.801Z,56.32
2024-03-24T16:10:11.480Z,56.63
2024-03-24T16:12:26.257Z,56.58
2024-03-24T16:14:38.483Z,56.21
2024-03-24T16:16:42.753Z,55.96
2024-03-24T16:18:47.066Z,56.19
2024-03-24T16:21:07.078Z,55.96
2024-03-24T16:23:12.403Z,56.28
2024-03-24T16:25:16.897Z,56.04
2024-03-24T16:27:21.247Z,56.29
2024-03-24T16:29:25.541Z,56.34
2024-03-24T16:31:29.875Z,56.64
2024-03-24T16:33:35.184Z,56.82
2024-03-24T16:35:39.473Z,57.69
2024-03-24T16:37:43.791Z,57.55
2024-03-24T16:39:48.162Z,58.12
2024-03-24T16:41:52.655Z,58.54
2024-03-24T16:43:58.575Z,58.72
2024-03-24T16:46:03.098Z,59.19
2024-03-24T16:48:08.048Z,60.33
2024-03-24T16:50:13.146Z,61.00
2024-03-24T16:52:17.611Z,61.75
2024-03-24T16:54:21.945Z,62.23
2024-03-24T16:56:26.366Z,62.34
2024-03-24T16:58:30.702Z,62.70
2024-03-24T17:00:35.008Z,63.19
2024-03-24T17:02:39.697Z,63.54
2024-03-24T17:04:44.117Z,63.73
2024-03-24T17:06:48.610Z,64.79
2024-03-24T17:08:53.631Z,64.81
2024-03-24T17:10:59.032Z,65.21
2024-03-24T17:13:03.610Z,65.61
2024-03-24T17:15:09.716Z,65.64
2024-03-24T17:17:14.159Z,66.61
2024-03-24T17:19:21.598Z,67.21
2024-03-24T17:21:26.078Z,68.70
2024-03-24T17:23:30.800Z,69.57
2024-03-24T17:25:35.146Z,69.76
2024-03-24T17:27:39.627Z,69.53
2024-03-24T17:29:43.949Z,70.41
2024-03-24T17:31:48.626Z,70.86
2024-03-24T17:33:53.026Z,72.27
2024-03-24T17:35:57.374Z,72.43
2024-03-24T17:38:01.733Z,74.04
2024-03-24T17:40:07.922Z,73.65
2024-03-24T17:42:12.275Z,73.61
2024-03-24T17:46:21.001Z,74.84
2024-03-24T17:48:26.036Z,75.80
2024-03-24T17:50:31.091Z,75.76
2024-03-24T17:52:35.930Z,76.45
2024-03-24T17:54:40.319Z,76.77
2024-03-24T17:56:44.697Z,77.51
2024-03-24T17:58:49.186Z,76.69
2024-03-24T18:00:53.804Z,78.16
2024-03-24T18:02:58.260Z,77.78
2024-03-24T18:05:02.670Z,78.56
2024-03-24T18:07:07.165Z,77.97
2024-03-24T18:09:11.601Z,78.67
2024-03-24T18:11:16.034Z,78.82
2024-03-24T18:13:20.956Z,79.74
2024-03-24T18:15:25.667Z,79.15
2024-03-24T18:17:30.565Z,80.12
2024-03-24T18:19:34.901Z,80.23
2024-03-24T18:21:39.451Z,79.93
2024-03-24T18:23:44.525Z,80.35
2024-03-24T18:25:48.981Z,80.02
2024-03-24T18:27:53.519Z,80.00
2024-03-24T18:29:58.887Z,79.87
2024-03-24T18:32:04.578Z,79.47
2024-03-24T18:34:09.580Z,80.07
2024-03-24T18:36:17.064Z,80.13
2024-03-24T18:38:23.317Z,79.82
2024-03-24T18:40:28.774Z,79.71
2024-03-24T18:42:34.028Z,79.22
2024-03-24T18:57:45.524Z,78.25
2024-03-24T18:59:50.090Z,78.02
2024-03-24T19:01:55.808Z,78.84
2024-03-24T19:04:01.722Z,78.97
2024-03-24T19:06:09.704Z,80.24
2024-03-24T19:08:15.662Z,80.97
2024-03-24T19:10:20.485Z,82.08
2024-03-24T19:12:26.744Z,86.67
2024-03-24T19:14:31.461Z,88.30
2024-03-24T19:16:36.841Z,90.30
2024-03-24T19:18:42.458Z,92.88
2024-03-24T19:20:47.708Z,93.78
2024-03-24T19:22:52.908Z,94.38
2024-03-24T19:24:58.645Z,93.81
2024-03-24T19:27:04.090Z,94.05
2024-03-24T19:29:09.860Z,92.67
2024-03-24T19:31:15.211Z,93.72
2024-03-24T19:33:20.608Z,93.58
2024-03-24T19:35:26.105Z,91.31
2024-03-24T19:37:31.438Z,92.20
2024-03-24T19:39:36.662Z,91.92
2024-03-24T19:41:42.136Z,91.03
2024-03-24T19:43:48.249Z,90.92
2024-03-24T19:45:53.598Z,89.89
2024-03-24T19:47:58.710Z,89.49
2024-03-24T19:50:08.673Z,89.36
2024-03-24T19:52:13.605Z,88.93
2024-03-24T19:54:18.234Z,88.58
2024-03-24T19:56:23.097Z,89.02
2024-03-24T19:58:30.106Z,88.56
2024-03-24T20:00:35.679Z,87.66
2024-03-24T20:02:40.664Z,87.24
2024-03-24T20:04:45.849Z,86.56
2024-03-24T20:06:50.966Z,86.31
2024-03-24T20:08:55.381Z,86.17
2024-03-24T20:11:00.399Z,86.14
2024-03-24T20:13:05.762Z,85.88
2024-03-24T20:15:11.286Z,85.96
2024-03-24T20:17:16.115Z,85.66
2024-03-24T20:19:21.176Z,85.25
2024-03-24T20:21:27.049Z,85.00
2024-03-24T20:23:31.681Z,85.19
2024-03-24T20:25:36.911Z,85.00
2024-03-24T20:27:41.754Z,84.45
2024-03-24T20:29:46.432Z,84.66
2024-03-24T20:31:51.184Z,84.66
2024-03-24T20:33:56.452Z,84.38
2024-03-24T20:36:01.002Z,84.29
2024-03-24T20:38:05.706Z,84.24
2024-03-24T20:40:11.359Z,84.15
2024-03-24T20:42:16.004Z,84.47
2024-03-24T20:44:20.438Z,84.57
2024-03-24T20:46:25.080Z,84.74
2024-03-24T20:48:29.598Z,84.87
2024-03-24T20:50:33.914Z,85.38
2024-03-24T20:52:38.221Z,85.66
2024-03-24T20:54:42.601Z,86.23
2024-03-24T20:56:47.092Z,86.47
2024-03-24T20:58:51.423Z,86.81
2024-03-24T21:00:55.940Z,86.73
2024-03-24T21:03:00.540Z,87.10
2024-03-24T21:05:05.491Z,87.21
2024-03-24T21:07:10.010Z,87.95
2024-03-24T21:09:14.786Z,87.63
2024-03-24T21:11:19.407Z,87.36
2024-03-24T21:13:23.909Z,88.56
2024-03-24T21:15:28.239Z,88.40
2024-03-24T21:17:33.021Z,88.74
2024-03-24T21:19:37.457Z,88.40
2024-03-24T21:21:42.356Z,88.66
2024-03-24T21:23:46.778Z,88.83
2024-03-24T21:25:51.082Z,88.87
2024-03-24T21:27:55.422Z,89.08
2024-03-24T21:29:59.830Z,88.95
2024-03-24T21:32:05.446Z,88.55
2024-03-24T21:34:11.239Z,89.05
2024-03-24T21:36:15.647Z,88.66
2024-03-24T21:38:20.009Z,88.57
2024-03-24T21:40:24.483Z,88.33
2024-03-24T21:42:28.880Z,88.29
2024-03-24T21:44:33.525Z,88.46
2024-03-24T21:46:37.873Z,88.26
2024-03-24T21:48:42.432Z,87.83
2024-03-24T21:50:46.767Z,87.69
2024-03-24T21:52:54.394Z,87.54
2024-03-24T21:54:58.702Z,87.00
2024-03-24T21:57:03.467Z,86.74
2024-03-24T21:59:07.887Z,86.70
2024-03-24T22:01:12.286Z,86.38
2024-03-24T22:03:16.676Z,86.45
2024-03-24T22:05:24.260Z,86.81
2024-03-24T22:07:50.375Z,86.47
2024-03-24T22:09:53.223Z,86.49
2024-03-24T22:11:57.577Z,85.83
2024-03-24T22:14:02.105Z,86.05
2024-03-24T22:16:07.556Z,85.48
2024-03-24T22:18:12.128Z,85.83
2024-03-24T22:20:16.599Z,85.61
2024-03-24T22:22:20.982Z,85.73
2024-03-24T22:24:25.410Z,85.96
2024-03-24T22:26:29.797Z,85.45
2024-03-24T22:28:34.119Z,85.52
2024-03-24T22:30:38.496Z,85.83
2024-03-24T22:32:42.837Z,85.74
2024-03-24T22:34:47.147Z,86.44
2024-03-24T22:36:51.681Z,86.38
2024-03-24T22:38:56.839Z,86.89
2024-03-24T22:41:01.224Z,87.02
2024-03-24T22:43:05.850Z,87.61
2024-03-24T22:45:10.594Z,87.55
2024-03-24T22:47:15.023Z,87.94
2024-03-24T22:49:19.469Z,87.95
2024-03-24T22:51:23.746Z,87.85
2024-03-24T22:53:28.010Z,88.27
2024-03-24T22:55:32.543Z,88.13
2024-03-24T22:57:37.290Z,88.43
2024-03-24T22:59:41.713Z,88.13
2024-03-24T23:01:46.159Z,88.11
2024-03-24T23:03:50.575Z,87.94
2024-03-24T23:05:55.342Z,87.82
2024-03-24T23:07:59.794Z,87.51
2024-03-24T23:10:04.885Z,87.38
2024-03-24T23:12:09.968Z,87.35
2024-03-24T23:14:14.362Z,86.90
2024-03-24T23:16:18.752Z,86.52
2024-03-24T23:18:23.213Z,86.38
2024-03-24T23:20:27.580Z,86.43
2024-03-24T23:22:32.034Z,86.13
2024-03-24T23:24:36.417Z,85.74
2024-03-24T23:26:40.866Z,86.03
2024-03-24T23:28:45.206Z,85.64
2024-03-24T23:30:49.560Z,85.26
2024-03-24T23:32:54.117Z,84.98
2024-03-24T23:34:59.671Z,84.56
2024-03-24T23:37:04.179Z,84.50
2024-03-24T23:39:08.502Z,84.50
2024-03-24T23:41:12.839Z,84.25
2024-03-24T23:43:19.558Z,84.26
2024-03-24T23:45:23.969Z,83.99
2024-03-24T23:47:28.944Z,83.82
2024-03-24T23:49:33.209Z,83.80
2024-03-24T23:51:37.563Z,83.49
2024-03-24T23:53:41.944Z,83.72
2024-03-24T23:55:57.793Z,83.78
2024-03-24T23:58:02.118Z,83.65
